createdAt,value
2019-01-14T00:00:07.604Z,19.93
2019-01-14T00:02:36.211Z,17.17
2019-01-14T00:05:06.110Z,16.57
2019-01-14T00:07:34.566Z,15.13
2019-01-14T00:10:03.477Z,12.67
2019-01-14T00:12:31.880Z,15.80
2019-01-14T00:15:00.455Z,19.57
2019-01-14T00:17:28.868Z,19.17
2019-01-14T00:19:57.395Z,13.70
2019-01-14T00:22:25.827Z,15.77
2019-01-14T00:24:54.294Z,15.50
2019-01-14T00:27:22.674Z,18.63
2019-01-14T00:29:51.120Z,21.23
2019-01-14T00:32:19.541Z,15.90
2019-01-14T00:34:47.975Z,17.40
2019-01-14T00:37:16.386Z,17.70
2019-01-14T00:39:44.831Z,19.83
2019-01-14T00:42:13.238Z,17.27
2019-01-14T00:44:41.668Z,14.87
2019-01-14T00:47:10.080Z,12.57
2019-01-14T00:49:38.537Z,13.13
2019-01-14T00:52:06.939Z,17.97
2019-01-14T00:54:35.360Z,15.63
2019-01-14T00:57:03.968Z,14.83
2019-01-14T00:59:32.379Z,17.63
2019-01-14T01:02:00.897Z,16.10
2019-01-14T01:04:29.327Z,17.00
2019-01-14T01:06:58.299Z,26.33
2019-01-14T01:09:26.713Z,17.50
2019-01-14T01:11:55.168Z,19.63
2019-01-14T01:14:23.582Z,14.60
2019-01-14T01:16:52.016Z,16.83
2019-01-14T01:19:20.424Z,18.70
2019-01-14T01:21:48.933Z,24.10
2019-01-14T01:24:17.343Z,17.33
2019-01-14T01:26:45.796Z,18.53
2019-01-14T01:29:14.219Z,18.10
2019-01-14T01:31:42.656Z,18.43
2019-01-14T01:34:11.120Z,14.37
2019-01-14T01:36:39.552Z,16.13
2019-01-14T01:39:08.264Z,16.77
2019-01-14T01:41:36.762Z,19.23
2019-01-14T01:44:05.275Z,18.00
2019-01-14T01:46:33.711Z,15.17
2019-01-14T01:49:02.177Z,15.63
2019-01-14T01:51:30.718Z,19.17
2019-01-14T01:53:59.718Z,18.57
2019-01-14T01:56:28.193Z,14.10
2019-01-14T01:58:56.919Z,17.00
2019-01-14T02:01:25.330Z,15.60
2019-01-14T02:03:53.839Z,15.73
2019-01-14T02:06:22.332Z,13.83
2019-01-14T02:08:50.786Z,18.67
2019-01-14T02:11:19.279Z,13.50
2019-01-14T02:13:48.185Z,15.07
2019-01-14T02:16:16.694Z,17.23
2019-01-14T02:18:45.210Z,14.47
2019-01-14T02:21:13.623Z,19.33
2019-01-14T02:23:42.069Z,16.93
2019-01-14T02:26:10.763Z,16.30
2019-01-14T02:28:39.192Z,14.20
2019-01-14T02:31:07.646Z,18.93
2019-01-14T02:33:36.077Z,15.70
2019-01-14T02:36:05.333Z,12.20
2019-01-14T02:38:33.756Z,15.47
2019-01-14T02:41:02.205Z,16.47
2019-01-14T02:43:30.619Z,15.00
2019-01-14T02:45:59.062Z,18.67
2019-01-14T02:48:27.478Z,20.17
2019-01-14T02:50:55.910Z,17.47
2019-01-14T02:53:24.328Z,19.40
2019-01-14T02:55:52.768Z,19.43
2019-01-14T02:58:21.260Z,19.57
2019-01-14T03:00:49.715Z,20.17
2019-01-14T03:03:18.129Z,14.23
2019-01-14T03:05:46.586Z,18.07
2019-01-14T03:08:14.991Z,17.90
2019-01-14T03:10:43.443Z,15.23
2019-01-14T03:13:12.441Z,10.13
2019-01-14T03:15:40.851Z,17.30
2019-01-14T03:18:09.318Z,14.47
2019-01-14T03:20:37.734Z,20.17
2019-01-14T03:23:06.195Z,14.90
2019-01-14T03:25:34.610Z,15.90
2019-01-14T03:28:03.049Z,13.17
2019-01-14T03:30:31.543Z,13.63
2019-01-14T03:32:59.912Z,8.80
2019-01-14T03:35:28.325Z,18.67
2019-01-14T03:37:56.831Z,10.07
2019-01-14T03:40:25.754Z,11.80
2019-01-14T03:42:54.188Z,9.37
2019-01-14T03:45:22.610Z,10.97
2019-01-14T03:47:51.154Z,9.03
2019-01-14T03:50:21.796Z,8.43
2019-01-14T03:52:50.540Z,6.40
2019-01-14T03:55:19.117Z,8.53
2019-01-14T03:57:47.854Z,7.60
2019-01-14T04:00:17.914Z,5.77
2019-01-14T04:02:46.904Z,7.87
2019-01-14T04:05:15.580Z,5.87
2019-01-14T04:07:44.129Z,7.10
2019-01-14T04:10:14.695Z,8.80
2019-01-14T04:12:43.346Z,6.07
2019-01-14T04:15:14.420Z,6.07
2019-01-14T04:17:42.901Z,6.30
2019-01-14T04:20:16.897Z,5.23
2019-01-14T04:22:45.543Z,7.00
2019-01-14T04:25:14.219Z,3.77
2019-01-14T04:27:42.941Z,7.27
2019-01-14T04:30:14.684Z,10.10
2019-01-14T04:32:44.034Z,5.40
2019-01-14T04:35:13.112Z,7.77
2019-01-14T04:37:41.593Z,8.00
2019-01-14T04:40:12.986Z,6.93
2019-01-14T04:42:41.485Z,5.73
2019-01-14T04:45:14.907Z,4.77
2019-01-14T04:47:43.382Z,4.23
2019-01-14T04:50:17.172Z,5.33
2019-01-14T04:52:45.657Z,6.00
2019-01-14T04:55:14.216Z,11.33
2019-01-14T04:57:42.810Z,6.30
2019-01-14T05:00:14.186Z,8.23
2019-01-14T05:02:42.642Z,10.00
2019-01-14T05:05:11.393Z,7.80
2019-01-14T05:07:39.908Z,8.37
2019-01-14T05:10:14.439Z,6.40
2019-01-14T05:12:42.944Z,9.23
2019-01-14T05:15:12.386Z,7.90
2019-01-14T05:17:40.826Z,8.07
2019-01-14T05:20:15.013Z,9.67
2019-01-14T05:22:43.516Z,12.47
2019-01-14T05:25:12.106Z,9.37
2019-01-14T05:27:40.679Z,8.30
2019-01-14T05:30:14.215Z,10.10
2019-01-14T05:32:42.848Z,11.17
2019-01-14T05:35:12.398Z,13.07
2019-01-14T05:37:40.918Z,14.93
2019-01-14T05:40:14.803Z,12.23
2019-01-14T05:42:43.308Z,12.27
2019-01-14T05:45:11.982Z,11.20
2019-01-14T05:47:40.423Z,15.00
2019-01-14T05:50:11.774Z,10.60
2019-01-14T05:52:40.295Z,14.07
2019-01-14T05:55:10.980Z,14.30
2019-01-14T05:57:39.567Z,13.73
2019-01-14T06:00:15.529Z,10.20
2019-01-14T06:02:44.025Z,13.37
2019-01-14T06:05:12.697Z,12.57
2019-01-14T06:07:45.019Z,11.83
2019-01-14T06:10:11.394Z,15.10
2019-01-14T06:12:39.822Z,15.10
2019-01-14T06:15:11.328Z,12.70
2019-01-14T06:17:39.755Z,9.80
2019-01-14T06:20:12.195Z,11.93
2019-01-14T06:22:40.696Z,15.33
2019-01-14T06:25:12.182Z,10.17
2019-01-14T06:27:40.668Z,11.53
2019-01-14T06:30:26.758Z,10.97
2019-01-14T06:32:55.171Z,11.47
2019-01-14T06:35:23.774Z,8.47
2019-01-14T06:37:52.781Z,9.87
2019-01-14T06:40:21.935Z,9.67
2019-01-14T06:42:50.411Z,9.87
2019-01-14T06:45:18.985Z,9.87
2019-01-14T06:47:47.580Z,8.97
2019-01-14T06:50:17.964Z,13.67
2019-01-14T06:52:46.547Z,10.07
2019-01-14T06:55:15.728Z,9.90
2019-01-14T06:57:44.163Z,11.17
2019-01-14T07:00:18.563Z,8.20
2019-01-14T07:02:47.223Z,7.23
2019-01-14T07:05:16.097Z,9.03
2019-01-14T07:07:44.517Z,16.93
2019-01-14T07:10:18.964Z,11.83
2019-01-14T07:12:48.958Z,5.80
2019-01-14T07:15:17.677Z,9.93
2019-01-14T07:17:46.199Z,7.83
2019-01-14T07:20:15.788Z,11.27
2019-01-14T07:22:44.299Z,8.10
2019-01-14T07:25:13.363Z,10.70
2019-01-14T07:27:41.900Z,10.70
2019-01-14T07:30:13.594Z,7.60
2019-01-14T07:32:42.107Z,10.37
2019-01-14T07:35:10.793Z,14.00
2019-01-14T07:37:39.414Z,10.23
2019-01-14T07:40:10.655Z,8.00
2019-01-14T07:42:39.274Z,7.40
2019-01-14T07:45:10.231Z,8.00
2019-01-14T07:47:38.781Z,8.17
2019-01-14T07:50:10.131Z,10.33
2019-01-14T07:52:38.790Z,8.90
2019-01-14T07:55:07.569Z,6.53
2019-01-14T07:57:36.013Z,4.87
2019-01-14T08:00:07.956Z,7.13
2019-01-14T08:02:36.395Z,7.80
2019-01-14T08:05:05.140Z,8.07
2019-01-14T08:07:33.575Z,9.83
2019-01-14T08:10:01.998Z,7.83
2019-01-14T08:12:30.508Z,7.63
2019-01-14T08:14:58.952Z,4.37
2019-01-14T08:17:27.414Z,7.47
2019-01-14T08:19:55.851Z,7.00
2019-01-14T08:22:24.264Z,6.67
2019-01-14T08:24:52.715Z,8.67
2019-01-14T08:27:21.124Z,6.00
2019-01-14T08:29:49.625Z,5.47
2019-01-14T08:32:18.200Z,5.07
2019-01-14T08:34:46.727Z,6.77
2019-01-14T08:37:15.566Z,6.67
2019-01-14T08:39:43.999Z,7.03
2019-01-14T08:42:13.222Z,6.63
2019-01-14T08:44:46.100Z,9.23
2019-01-14T08:47:14.551Z,7.30
2019-01-14T08:49:42.980Z,7.70
2019-01-14T08:52:11.493Z,6.33
2019-01-14T08:54:39.914Z,8.03
2019-01-14T08:57:08.520Z,7.37
2019-01-14T08:59:36.946Z,6.20
2019-01-14T09:02:05.528Z,6.77
2019-01-14T09:04:34.046Z,6.93
2019-01-14T09:07:02.612Z,4.70
2019-01-14T09:09:31.055Z,8.20
2019-01-14T09:11:59.621Z,7.37
2019-01-14T09:14:27.971Z,9.20
2019-01-14T09:16:56.427Z,10.03
2019-01-14T09:19:24.846Z,8.60
2019-01-14T09:21:53.350Z,12.40
2019-01-14T09:24:21.775Z,15.90
2019-01-14T09:26:50.223Z,8.90
2019-01-14T09:29:18.812Z,10.40
2019-01-14T09:31:47.251Z,9.13
2019-01-14T09:34:15.908Z,8.13
2019-01-14T09:36:44.343Z,9.97
2019-01-14T09:39:12.957Z,7.90
2019-01-14T09:41:41.421Z,10.30
2019-01-14T09:44:09.914Z,7.30
2019-01-14T09:46:38.341Z,9.60
2019-01-14T09:49:06.827Z,10.03
2019-01-14T09:51:35.276Z,8.67
2019-01-14T09:54:04.456Z,16.20
2019-01-14T09:56:32.899Z,12.53
2019-01-14T09:59:01.395Z,13.47
2019-01-14T10:01:29.902Z,7.10
2019-01-14T10:03:58.355Z,7.03
2019-01-14T10:06:26.772Z,8.13
2019-01-14T10:08:55.387Z,11.13
2019-01-14T10:11:23.876Z,6.10
2019-01-14T10:13:52.465Z,9.67
2019-01-14T10:16:21.165Z,7.90
2019-01-14T10:18:49.634Z,8.30
2019-01-14T10:21:18.125Z,8.03
2019-01-14T10:23:46.636Z,6.97
2019-01-14T10:26:16.201Z,9.17
2019-01-14T10:28:44.762Z,9.47
2019-01-14T10:31:13.253Z,12.10
2019-01-14T10:33:41.703Z,12.97
2019-01-14T10:36:10.270Z,8.03
2019-01-14T10:38:38.700Z,14.13
2019-01-14T10:41:07.191Z,9.57
2019-01-14T10:43:35.711Z,6.93
2019-01-14T10:46:04.123Z,9.80
2019-01-14T10:48:32.603Z,11.50
2019-01-14T10:51:01.021Z,10.37
2019-01-14T10:53:29.443Z,4.90
2019-01-14T10:55:57.897Z,5.37
2019-01-14T10:58:26.388Z,5.43
2019-01-14T11:00:54.817Z,5.27
2019-01-14T11:03:23.300Z,2.87
2019-01-14T11:05:51.959Z,6.37
2019-01-14T11:08:20.369Z,4.33
2019-01-14T11:10:48.864Z,5.43
2019-01-14T11:13:17.290Z,6.17
2019-01-14T11:15:45.719Z,6.87
2019-01-14T11:18:14.169Z,6.87
2019-01-14T11:20:42.594Z,5.03
2019-01-14T11:23:11.027Z,4.93
2019-01-14T11:25:39.547Z,4.97
2019-01-14T11:28:08.510Z,8.33
2019-01-14T11:30:37.018Z,4.20
2019-01-14T11:33:05.692Z,6.50
2019-01-14T11:35:35.711Z,5.70
2019-01-14T11:38:04.627Z,8.63
2019-01-14T11:40:35.218Z,6.60
2019-01-14T11:43:03.705Z,7.23
2019-01-14T11:45:32.597Z,8.20
2019-01-14T11:48:01.124Z,8.67
2019-01-14T11:50:29.578Z,7.90
2019-01-14T11:52:57.987Z,5.67
2019-01-14T11:55:27.361Z,7.47
2019-01-14T11:57:55.799Z,9.37
2019-01-14T12:00:26.161Z,7.37
2019-01-14T12:02:55.035Z,6.43
2019-01-14T12:05:23.608Z,8.97
2019-01-14T12:07:55.016Z,7.63
2019-01-14T12:10:23.563Z,7.03
2019-01-14T12:12:52.092Z,5.73
2019-01-14T12:15:25.619Z,4.20
2019-01-14T12:17:54.122Z,8.23
2019-01-14T12:20:22.798Z,10.07
2019-01-14T12:22:51.449Z,8.17
2019-01-14T12:25:20.117Z,7.17
2019-01-14T12:27:48.995Z,12.13
2019-01-14T12:30:29.393Z,6.57
2019-01-14T12:32:58.078Z,8.63
2019-01-14T12:35:26.550Z,4.13
2019-01-14T12:37:54.990Z,5.60
2019-01-14T12:40:25.206Z,7.03
2019-01-14T12:42:53.850Z,6.73
2019-01-14T12:45:22.648Z,4.93
2019-01-14T12:47:51.287Z,4.83
2019-01-14T12:50:21.482Z,4.47
2019-01-14T12:52:49.968Z,4.93
2019-01-14T12:55:19.631Z,7.30
2019-01-14T12:57:48.106Z,6.40
2019-01-14T13:00:19.190Z,6.13
2019-01-14T13:02:47.744Z,7.07
2019-01-14T13:05:18.006Z,3.90
2019-01-14T13:07:46.958Z,9.10
2019-01-14T13:10:15.912Z,5.13
2019-01-14T13:12:44.397Z,3.73
2019-01-14T13:15:20.853Z,12.03
2019-01-14T13:17:49.615Z,8.00
2019-01-14T13:20:20.189Z,6.53
2019-01-14T13:22:48.950Z,2.70
2019-01-14T13:25:17.911Z,4.10
2019-01-14T13:27:46.459Z,3.43
2019-01-14T13:30:23.746Z,3.93
2019-01-14T13:32:52.580Z,4.90
2019-01-14T13:35:21.531Z,5.73
2019-01-14T13:37:50.589Z,4.40
2019-01-14T13:40:19.170Z,5.37
2019-01-14T13:42:47.920Z,4.00
2019-01-14T13:45:21.307Z,5.17
2019-01-14T13:47:50.058Z,5.93
2019-01-14T13:50:20.644Z,4.63
2019-01-14T13:52:49.189Z,4.17
2019-01-14T13:55:17.918Z,5.67
2019-01-14T13:57:46.403Z,6.17
2019-01-14T14:00:23.819Z,2.63
2019-01-14T14:02:52.601Z,4.27
2019-01-14T14:05:21.226Z,9.07
2019-01-14T14:07:49.660Z,3.53
2019-01-14T14:10:26.353Z,2.50
2019-01-14T14:12:54.813Z,6.03
2019-01-14T14:15:23.671Z,7.37
2019-01-14T14:17:52.267Z,6.83
2019-01-14T14:20:20.758Z,6.73
2019-01-14T14:22:49.267Z,5.93
2019-01-14T14:25:17.759Z,5.67
2019-01-14T14:27:46.186Z,6.60
2019-01-14T14:30:23.581Z,5.63
2019-01-14T14:32:52.299Z,6.87
2019-01-14T14:35:20.854Z,8.27
2019-01-14T14:37:49.359Z,5.47
2019-01-14T14:40:18.229Z,5.77
2019-01-14T14:42:46.676Z,7.80
2019-01-14T14:45:16.225Z,5.80
2019-01-14T14:47:44.756Z,3.27
2019-01-14T14:50:18.182Z,4.93
2019-01-14T14:52:47.093Z,5.50
2019-01-14T14:55:15.577Z,7.77
2019-01-14T14:57:44.102Z,3.63
2019-01-14T15:00:18.276Z,7.23
2019-01-14T15:02:46.862Z,3.57
2019-01-14T15:05:15.525Z,4.53
2019-01-14T15:07:44.151Z,4.53
2019-01-14T15:10:17.903Z,4.97
2019-01-14T15:12:46.484Z,3.23
2019-01-14T15:15:17.205Z,3.10
2019-01-14T15:17:46.058Z,3.77
2019-01-14T15:20:20.104Z,7.20
2019-01-14T15:22:48.651Z,7.33
2019-01-14T15:25:17.243Z,4.30
2019-01-14T15:27:45.728Z,8.07
2019-01-14T15:30:22.691Z,4.87
2019-01-14T15:32:51.175Z,4.37
2019-01-14T15:35:19.976Z,4.53
2019-01-14T15:37:48.375Z,5.17
2019-01-14T15:40:18.382Z,7.17
2019-01-14T15:42:46.969Z,7.33
2019-01-14T15:45:20.079Z,9.07
2019-01-14T15:47:48.496Z,7.90
2019-01-14T15:50:17.006Z,7.50
2019-01-14T15:52:45.443Z,4.10
2019-01-14T15:55:22.315Z,5.63
2019-01-14T15:57:51.579Z,5.80
2019-01-14T16:00:20.185Z,6.93
2019-01-14T16:02:49.038Z,12.73
2019-01-14T16:05:18.980Z,5.13
2019-01-14T16:07:48.054Z,11.03
2019-01-14T16:10:19.371Z,7.10
2019-01-14T16:12:47.856Z,7.50
2019-01-14T16:15:16.529Z,6.77
2019-01-14T16:17:45.284Z,6.60
2019-01-14T16:20:18.981Z,8.00
2019-01-14T16:22:47.752Z,6.87
2019-01-14T16:25:16.424Z,8.37
2019-01-14T16:27:44.993Z,7.77
2019-01-14T16:30:18.469Z,5.93
2019-01-14T16:32:46.944Z,16.17
2019-01-14T16:35:15.526Z,9.30
2019-01-14T16:37:44.214Z,6.47
2019-01-14T16:40:17.978Z,8.60
2019-01-14T16:42:43.221Z,7.03
2019-01-14T16:45:17.030Z,6.63
2019-01-14T16:47:45.534Z,5.47
2019-01-14T16:50:15.696Z,8.53
2019-01-14T16:52:44.272Z,11.40
2019-01-14T16:55:14.513Z,7.33
2019-01-14T16:57:42.968Z,5.40
2019-01-14T17:00:18.874Z,9.27
2019-01-14T17:02:47.428Z,8.70
2019-01-14T17:05:16.544Z,9.77
2019-01-14T17:07:45.074Z,6.87
2019-01-14T17:10:15.510Z,14.93
2019-01-14T17:12:44.110Z,7.10
2019-01-14T17:15:13.095Z,10.63
2019-01-14T17:17:41.763Z,8.03
2019-01-14T17:20:13.260Z,6.23
2019-01-14T17:22:41.704Z,8.53
2019-01-14T17:25:10.518Z,6.57
2019-01-14T17:27:38.937Z,5.73
2019-01-14T17:30:13.515Z,7.10
2019-01-14T17:32:42.023Z,4.47
2019-01-14T17:35:10.682Z,12.10
2019-01-14T17:37:39.171Z,7.27
2019-01-14T17:40:10.984Z,8.93
2019-01-14T17:42:39.765Z,7.67
2019-01-14T17:45:09.952Z,5.73
2019-01-14T17:47:38.713Z,8.27
2019-01-14T17:50:12.779Z,10.87
2019-01-14T17:52:41.174Z,5.80
2019-01-14T17:55:10.138Z,8.53
2019-01-14T17:57:38.923Z,8.13
2019-01-14T18:00:22.026Z,4.80
2019-01-14T18:02:50.522Z,14.40
2019-01-14T18:05:19.104Z,13.73
2019-01-14T18:07:47.594Z,7.63
2019-01-14T18:10:18.863Z,10.17
2019-01-14T18:12:47.553Z,12.97
2019-01-14T18:15:16.104Z,14.40
2019-01-14T18:17:44.627Z,7.37
2019-01-14T18:20:15.599Z,8.00
2019-01-14T18:22:44.104Z,9.07
2019-01-14T18:25:12.662Z,9.03
2019-01-14T18:27:41.131Z,7.80
2019-01-14T18:30:17.958Z,6.93
2019-01-14T18:32:46.869Z,6.33
2019-01-14T18:35:17.117Z,8.47
2019-01-14T18:37:45.933Z,7.40
2019-01-14T18:40:16.350Z,6.50
2019-01-14T18:42:45.135Z,6.50
2019-01-14T18:45:15.381Z,7.57
2019-01-14T18:47:44.042Z,8.20
2019-01-14T18:50:14.883Z,9.57
2019-01-14T18:52:43.357Z,8.53
2019-01-14T18:55:11.926Z,7.53
2019-01-14T18:57:40.594Z,6.80
2019-01-14T19:00:12.108Z,9.53
2019-01-14T19:02:40.535Z,12.77
2019-01-14T19:05:09.307Z,8.93
2019-01-14T19:07:37.925Z,9.97
2019-01-14T19:10:09.390Z,7.90
2019-01-14T19:12:37.867Z,9.23
2019-01-14T19:15:09.763Z,14.97
2019-01-14T19:17:38.283Z,6.77
2019-01-14T19:20:15.806Z,10.80
2019-01-14T19:22:44.365Z,6.67
2019-01-14T19:25:13.648Z,7.27
2019-01-14T19:27:42.100Z,6.40
2019-01-14T19:30:13.864Z,5.73
2019-01-14T19:32:42.337Z,8.23
2019-01-14T19:35:11.109Z,5.30
2019-01-14T19:37:39.910Z,5.53
2019-01-14T19:40:11.785Z,6.93
2019-01-14T19:42:40.288Z,5.07
2019-01-14T19:45:11.001Z,6.30
2019-01-14T19:47:39.427Z,13.33
2019-01-14T19:50:14.264Z,5.93
2019-01-14T19:52:42.759Z,5.57
2019-01-14T19:55:12.868Z,5.13
2019-01-14T19:57:41.430Z,7.60
2019-01-14T20:00:16.034Z,6.50
2019-01-14T20:02:44.514Z,7.67
2019-01-14T20:05:13.209Z,8.27
2019-01-14T20:07:41.719Z,8.23
2019-01-14T20:10:13.328Z,9.03
2019-01-14T20:12:41.812Z,10.00
2019-01-14T20:15:13.617Z,6.40
2019-01-14T20:17:42.050Z,7.97
2019-01-14T20:20:11.256Z,9.50
2019-01-14T20:22:39.805Z,11.93
2019-01-14T20:25:10.834Z,8.83
2019-01-14T20:27:39.442Z,8.60
2019-01-14T20:30:13.626Z,8.73
2019-01-14T20:32:42.169Z,5.27
2019-01-14T20:35:10.702Z,7.53
2019-01-14T20:37:39.244Z,7.40
2019-01-14T20:40:10.621Z,7.30
2019-01-14T20:42:39.187Z,9.87
2019-01-14T20:45:10.590Z,7.97
2019-01-14T20:47:39.270Z,4.70
2019-01-14T20:50:10.435Z,7.43
2019-01-14T20:52:39.099Z,9.93
2019-01-14T20:55:08.830Z,10.30
2019-01-14T20:57:37.419Z,10.97
2019-01-14T21:00:19.008Z,17.17
2019-01-14T21:02:47.517Z,7.87
2019-01-14T21:05:16.770Z,9.47
2019-01-14T21:07:45.325Z,7.93
2019-01-14T21:10:15.537Z,9.97
2019-01-14T21:12:44.075Z,6.37
2019-01-14T21:15:13.154Z,8.00
2019-01-14T21:17:41.679Z,8.33
2019-01-14T21:20:18.509Z,9.30
2019-01-14T21:22:47.306Z,8.97
2019-01-14T21:25:16.019Z,9.47
2019-01-14T21:27:44.707Z,12.07
2019-01-14T21:30:21.358Z,8.63
2019-01-14T21:32:49.795Z,10.93
2019-01-14T21:35:18.574Z,13.00
2019-01-14T21:37:47.461Z,8.43
2019-01-14T21:40:15.928Z,10.63
2019-01-14T21:42:44.398Z,9.07
2019-01-14T21:45:14.538Z,6.87
2019-01-14T21:47:42.953Z,11.70
2019-01-14T21:50:14.517Z,9.67
2019-01-14T21:52:43.066Z,9.87
2019-01-14T21:55:13.963Z,12.93
2019-01-14T21:57:42.532Z,10.67
2019-01-14T22:00:19.780Z,14.80
2019-01-14T22:02:48.451Z,11.07
2019-01-14T22:05:17.173Z,6.77
2019-01-14T22:07:45.624Z,9.40
2019-01-14T22:10:22.504Z,7.87
2019-01-14T22:12:51.388Z,8.67
2019-01-14T22:15:20.103Z,9.97
2019-01-14T22:17:48.629Z,9.57
2019-01-14T22:20:22.385Z,10.93
2019-01-14T22:22:51.047Z,14.00
2019-01-14T22:25:19.666Z,13.77
2019-01-14T22:27:48.239Z,10.57
2019-01-14T22:30:22.352Z,9.10
2019-01-14T22:32:50.885Z,10.80
2019-01-14T22:35:19.312Z,12.70
2019-01-14T22:37:47.848Z,9.60
2019-01-14T22:40:16.642Z,12.03
2019-01-14T22:42:45.530Z,13.23
2019-01-14T22:45:14.506Z,8.63
2019-01-14T22:47:43.107Z,10.70
2019-01-14T22:50:16.608Z,12.03
2019-01-14T22:52:45.605Z,11.43
2019-01-14T22:55:14.179Z,15.83
2019-01-14T22:57:42.656Z,10.47
2019-01-14T23:00:21.816Z,10.83
2019-01-14T23:02:50.417Z,8.60
2019-01-14T23:05:18.972Z,6.87
2019-01-14T23:07:47.620Z,10.40
2019-01-14T23:10:16.146Z,8.97
2019-01-14T23:12:44.652Z,10.17
2019-01-14T23:15:13.228Z,9.27
2019-01-14T23:17:41.694Z,7.97
2019-01-14T23:20:10.246Z,12.00
2019-01-14T23:22:38.783Z,7.90
2019-01-14T23:25:07.432Z,10.83
2019-01-14T23:27:36.033Z,9.60
2019-01-14T23:30:07.536Z,10.57
2019-01-14T23:32:35.975Z,10.33
2019-01-14T23:35:06.055Z,10.90
2019-01-14T23:37:34.471Z,9.10
2019-01-14T23:40:03.754Z,10.17
2019-01-14T23:42:32.446Z,11.03
2019-01-14T23:45:00.910Z,11.50
2019-01-14T23:47:29.333Z,9.73
2019-01-14T23:49:58.144Z,7.93
2019-01-14T23:52:26.597Z,12.43
2019-01-14T23:54:55.103Z,13.17
2019-01-14T23:57:23.663Z,8.47
2019-01-14T23:59:52.208Z,14.73
